createdAt,value
2018-06-03T00:00:09.304Z,5.83
2018-06-03T00:02:38.295Z,5.33
2018-06-03T00:05:08.063Z,5.85
2018-06-03T00:07:37.730Z,5.47
2018-06-03T00:10:07.176Z,5.70
2018-06-03T00:12:36.801Z,6.00
2018-06-03T00:15:06.124Z,5.90
2018-06-03T00:17:35.045Z,5.40
2018-06-03T00:20:03.912Z,7.70
2018-06-03T00:22:33.661Z,6.42
2018-06-03T00:25:02.779Z,6.62
2018-06-03T00:27:33.247Z,6.67
2018-06-03T00:30:02.856Z,6.20
2018-06-03T00:32:32.457Z,6.83
2018-06-03T00:35:02.104Z,6.75
2018-06-03T00:37:32.373Z,6.08
2018-06-03T00:40:01.263Z,5.42
2018-06-03T00:42:30.631Z,6.35
2018-06-03T00:45:00.625Z,6.78
2018-06-03T00:47:30.214Z,6.97
2018-06-03T00:49:59.549Z,6.92
2018-06-03T00:52:29.231Z,8.10
2018-06-03T00:54:58.552Z,6.35
2018-06-03T00:57:27.915Z,8.65
2018-06-03T00:59:56.918Z,8.40
2018-06-03T01:02:26.166Z,7.30
2018-06-03T01:04:55.843Z,7.83
2018-06-03T01:07:25.875Z,7.65
2018-06-03T01:09:56.208Z,8.10
2018-06-03T01:12:25.280Z,8.18
2018-06-03T01:14:54.579Z,7.85
2018-06-03T01:17:23.390Z,8.20
2018-06-03T01:19:51.707Z,8.45
2018-06-03T01:22:21.667Z,8.05
2018-06-03T01:24:50.352Z,8.40
2018-06-03T01:27:20.740Z,7.85
2018-06-03T01:29:49.397Z,8.23
2018-06-03T01:32:18.202Z,8.50
2018-06-03T01:34:47.195Z,7.95
2018-06-03T01:37:15.585Z,8.30
2018-06-03T01:39:45.059Z,9.13
2018-06-03T01:42:14.235Z,8.55
2018-06-03T01:44:43.210Z,9.38
2018-06-03T01:47:13.441Z,9.38
2018-06-03T01:49:43.036Z,8.98
2018-06-03T01:52:11.777Z,9.08
2018-06-03T01:54:40.379Z,8.50
2018-06-03T01:57:09.212Z,9.13
2018-06-03T01:59:38.465Z,9.30
2018-06-03T02:02:08.477Z,8.70
2018-06-03T02:04:37.577Z,8.33
2018-06-03T02:07:06.821Z,9.73
2018-06-03T02:09:35.458Z,9.30
2018-06-03T02:12:04.824Z,9.73
2018-06-03T02:14:33.217Z,9.20
2018-06-03T02:17:02.563Z,9.20
2018-06-03T02:19:31.650Z,10.43
2018-06-03T02:22:00.652Z,10.08
2018-06-03T02:24:29.925Z,9.73
2018-06-03T02:26:58.563Z,9.13
2018-06-03T02:29:28.325Z,8.63
2018-06-03T02:31:57.441Z,11.60
2018-06-03T02:34:26.808Z,9.68
2018-06-03T02:36:56.238Z,10.03
2018-06-03T02:39:25.565Z,9.80
2018-06-03T02:41:55.806Z,9.75
2018-06-03T02:44:25.123Z,10.13
2018-06-03T02:46:54.441Z,9.80
2018-06-03T02:49:23.153Z,10.53
2018-06-03T02:51:52.496Z,9.40
2018-06-03T02:54:22.175Z,9.90
2018-06-03T02:56:51.023Z,8.40
2018-06-03T02:59:19.689Z,9.70
2018-06-03T03:01:48.343Z,9.35
2018-06-03T03:04:17.092Z,10.55
2018-06-03T03:06:45.973Z,9.90
2018-06-03T03:09:15.287Z,11.25
2018-06-03T03:11:43.874Z,10.85
2018-06-03T03:14:13.023Z,11.55
2018-06-03T03:16:42.019Z,12.03
2018-06-03T03:19:10.890Z,12.93
2018-06-03T03:21:39.569Z,13.13
2018-06-03T03:24:08.259Z,13.45
2018-06-03T03:26:37.622Z,13.32
2018-06-03T03:29:07.041Z,13.48
2018-06-03T03:31:36.910Z,13.18
2018-06-03T03:34:05.607Z,12.88
2018-06-03T03:36:34.325Z,11.95
2018-06-03T03:39:02.973Z,13.22
2018-06-03T03:41:31.597Z,12.80
2018-06-03T03:44:00.901Z,12.28
2018-06-03T03:46:30.069Z,11.33
2018-06-03T03:48:58.756Z,10.98
2018-06-03T03:51:28.466Z,10.78
2018-06-03T03:53:57.730Z,11.55
2018-06-03T03:56:26.543Z,10.20
2018-06-03T03:58:56.562Z,16.93
2018-06-03T04:01:25.221Z,11.43
2018-06-03T04:03:54.953Z,10.38
2018-06-03T04:06:23.631Z,11.38
2018-06-03T04:08:52.208Z,10.20
2018-06-03T04:11:21.078Z,10.60
2018-06-03T04:13:50.544Z,11.30
2018-06-03T04:16:19.289Z,12.60
2018-06-03T04:18:49.016Z,13.20
2018-06-03T04:21:17.833Z,12.30
2018-06-03T04:23:46.495Z,11.90
2018-06-03T04:26:15.291Z,12.98
2018-06-03T04:28:44.834Z,12.68
2018-06-03T04:31:13.488Z,12.45
2018-06-03T04:33:42.566Z,11.45
2018-06-03T04:36:11.895Z,12.00
2018-06-03T04:38:40.544Z,12.03
2018-06-03T04:41:09.273Z,12.45
2018-06-03T04:43:39.439Z,14.20
2018-06-03T04:46:08.419Z,13.08
2018-06-03T04:48:38.110Z,12.95
2018-06-03T04:51:06.647Z,12.13
2018-06-03T04:53:36.158Z,12.95
2018-06-03T04:56:05.960Z,12.75
2018-06-03T04:58:35.528Z,12.33
2018-06-03T05:01:04.757Z,12.45
2018-06-03T05:03:33.420Z,11.83
2018-06-03T05:06:01.813Z,13.53
2018-06-03T05:08:31.592Z,12.43
2018-06-03T05:11:02.028Z,11.57
2018-06-03T05:13:31.546Z,10.98
2018-06-03T05:16:01.936Z,11.60
2018-06-03T05:18:31.669Z,12.10
2018-06-03T05:21:01.129Z,12.55
2018-06-03T05:23:31.148Z,11.97
2018-06-03T05:26:00.695Z,11.50
2018-06-03T05:28:30.310Z,12.70
2018-06-03T05:30:59.001Z,13.08
2018-06-03T05:33:28.861Z,11.35
2018-06-03T05:35:58.393Z,9.68
2018-06-03T05:38:27.986Z,12.25
2018-06-03T05:40:56.626Z,11.18
2018-06-03T05:43:26.001Z,10.78
2018-06-03T05:45:55.052Z,11.18
2018-06-03T05:48:24.355Z,11.97
2018-06-03T05:50:54.014Z,11.53
2018-06-03T05:53:24.294Z,12.33
2018-06-03T05:55:53.958Z,11.78
2018-06-03T05:58:22.777Z,11.70
2018-06-03T06:00:51.988Z,10.82
2018-06-03T06:03:21.853Z,10.93
2018-06-03T06:05:50.886Z,12.85
2018-06-03T06:08:19.970Z,11.22
2018-06-03T06:10:48.690Z,10.75
2018-06-03T06:13:17.293Z,11.30
2018-06-03T06:15:46.554Z,11.78
2018-06-03T06:18:16.225Z,11.90
2018-06-03T06:20:45.006Z,11.38
2018-06-03T06:23:13.815Z,11.60
2018-06-03T06:25:42.429Z,11.05
2018-06-03T06:28:11.643Z,12.45
2018-06-03T06:30:41.485Z,11.05
2018-06-03T06:33:10.626Z,10.50
2018-06-03T06:35:39.476Z,11.45
2018-06-03T06:38:09.655Z,10.88
2018-06-03T06:40:38.054Z,10.58
2018-06-03T06:43:07.040Z,10.48
2018-06-03T06:45:37.205Z,9.45
2018-06-03T06:48:06.505Z,9.48
2018-06-03T06:50:35.826Z,9.53
2018-06-03T06:53:05.138Z,9.55
2018-06-03T06:55:34.472Z,8.68
2018-06-03T06:58:03.287Z,10.80
2018-06-03T07:00:32.516Z,8.85
2018-06-03T07:03:01.413Z,9.70
2018-06-03T07:05:30.215Z,9.55
2018-06-03T07:07:59.326Z,11.65
2018-06-03T07:10:27.961Z,9.33
2018-06-03T07:12:56.809Z,10.03
2018-06-03T07:15:27.561Z,10.30
2018-06-03T07:17:57.610Z,10.00
2018-06-03T07:20:27.465Z,9.73
2018-06-03T07:22:57.093Z,10.43
2018-06-03T07:25:27.641Z,11.35
2018-06-03T07:27:58.491Z,10.60
2018-06-03T07:30:27.591Z,11.60
2018-06-03T07:32:56.531Z,12.93
2018-06-03T07:35:26.368Z,12.28
2018-06-03T07:37:55.370Z,11.60
2018-06-03T07:40:25.490Z,12.35
2018-06-03T07:42:54.637Z,11.40
2018-06-03T07:45:23.782Z,11.08
2018-06-03T07:47:52.889Z,11.48
2018-06-03T07:50:22.046Z,11.55
2018-06-03T07:52:51.852Z,10.48
2018-06-03T07:55:20.032Z,9.75
2018-06-03T07:57:48.501Z,12.53
2018-06-03T08:00:16.689Z,9.95
2018-06-03T08:02:44.931Z,11.28
2018-06-03T08:05:13.144Z,10.70
2018-06-03T08:07:41.384Z,10.18
2018-06-03T08:10:09.821Z,11.48
2018-06-03T08:12:42.122Z,11.15
2018-06-03T08:15:10.985Z,11.25
2018-06-03T08:17:40.072Z,10.00
2018-06-03T08:20:09.521Z,10.32
2018-06-03T08:22:38.700Z,10.08
2018-06-03T08:25:07.788Z,10.45
2018-06-03T08:27:37.259Z,10.35
2018-06-03T08:30:06.126Z,9.45
2018-06-03T08:32:34.833Z,10.13
2018-06-03T08:35:04.098Z,9.95
2018-06-03T08:37:32.483Z,10.93
2018-06-03T08:40:01.749Z,10.98
2018-06-03T08:42:31.356Z,9.98
2018-06-03T08:45:00.677Z,11.30
2018-06-03T08:47:29.626Z,10.35
2018-06-03T08:49:58.867Z,10.98
2018-06-03T08:52:27.574Z,9.25
2018-06-03T08:54:56.560Z,9.60
2018-06-03T08:57:25.894Z,9.45
2018-06-03T08:59:55.258Z,10.08
2018-06-03T09:02:24.251Z,9.35
2018-06-03T09:04:53.913Z,8.75
2018-06-03T09:07:23.061Z,8.65
2018-06-03T09:09:51.817Z,8.73
2018-06-03T09:12:21.608Z,8.63
2018-06-03T09:14:50.791Z,9.30
2018-06-03T09:17:19.690Z,10.00
2018-06-03T09:19:48.612Z,9.68
2018-06-03T09:22:18.791Z,10.13
2018-06-03T09:24:49.006Z,8.90
2018-06-03T09:27:18.501Z,9.00
2018-06-03T09:29:49.131Z,9.55
2018-06-03T09:32:18.485Z,8.43
2018-06-03T09:34:48.336Z,9.10
2018-06-03T09:37:17.263Z,8.00
2018-06-03T09:39:46.413Z,7.65
2018-06-03T09:42:15.066Z,9.38
2018-06-03T09:44:43.279Z,8.98
2018-06-03T09:47:11.909Z,8.10
2018-06-03T09:49:41.117Z,7.75
2018-06-03T09:52:10.220Z,7.50
2018-06-03T09:54:39.079Z,5.35
2018-06-03T09:57:07.813Z,6.40
2018-06-03T09:59:36.809Z,6.45
2018-06-03T10:02:05.680Z,6.42
2018-06-03T10:04:35.116Z,6.80
2018-06-03T10:07:04.066Z,7.15
2018-06-03T10:09:33.196Z,6.37
2018-06-03T10:12:01.922Z,6.08
2018-06-03T10:14:30.265Z,6.05
2018-06-03T10:16:58.958Z,6.25
2018-06-03T10:19:28.598Z,5.15
2018-06-03T10:21:57.804Z,6.50
2018-06-03T10:24:26.831Z,5.70
2018-06-03T10:26:55.851Z,5.30
2018-06-03T10:29:24.349Z,5.25
2018-06-03T10:31:53.560Z,5.72
2018-06-03T10:34:22.301Z,5.05
2018-06-03T10:36:51.403Z,4.55
2018-06-03T10:39:19.620Z,5.25
2018-06-03T10:41:48.310Z,5.17
2018-06-03T10:46:51.897Z,4.90
2018-06-03T10:49:20.933Z,6.05
2018-06-03T10:51:49.186Z,4.97
2018-06-03T10:54:17.184Z,4.92
2018-06-03T10:56:45.360Z,5.20
2018-06-03T10:59:13.966Z,4.20
2018-06-03T11:01:42.251Z,4.40
2018-06-03T11:04:10.512Z,4.67
2018-06-03T11:06:38.758Z,4.15
2018-06-03T11:09:07.493Z,4.37
2018-06-03T11:11:35.821Z,4.92
2018-06-03T11:14:04.387Z,4.17
2018-06-03T11:16:32.914Z,4.62
2018-06-03T11:19:01.367Z,4.12
2018-06-03T11:21:29.612Z,4.20
2018-06-03T11:23:57.862Z,3.95
2018-06-03T11:26:26.684Z,3.65
2018-06-03T11:28:55.454Z,4.53
2018-06-03T11:31:23.962Z,3.80
2018-06-03T11:33:52.378Z,3.98
2018-06-03T11:36:20.648Z,3.50
2018-06-03T11:38:48.859Z,5.60
2018-06-03T11:41:17.390Z,3.77
2018-06-03T11:43:46.089Z,4.62
2018-06-03T11:46:14.612Z,3.98
2018-06-03T11:48:42.932Z,4.15
2018-06-03T11:51:10.872Z,4.12
2018-06-03T11:53:39.490Z,4.25
2018-06-03T11:56:07.443Z,4.33
2018-06-03T11:58:55.001Z,5.87
2018-06-03T12:01:24.166Z,4.17
2018-06-03T12:03:52.380Z,4.53
2018-06-03T12:06:21.902Z,4.67
2018-06-03T12:08:50.672Z,3.72
2018-06-03T12:11:18.652Z,4.65
2018-06-03T12:13:47.945Z,4.03
2018-06-03T12:16:16.459Z,4.50
2018-06-03T12:18:44.654Z,4.67
2018-06-03T12:21:13.203Z,3.75
2018-06-03T12:23:41.394Z,4.20
2018-06-03T12:26:10.099Z,4.22
2018-06-03T12:28:39.178Z,3.90
2018-06-03T12:31:07.289Z,4.33
2018-06-03T12:33:35.955Z,3.90
2018-06-03T12:36:04.176Z,3.92
2018-06-03T12:38:33.155Z,4.58
2018-06-03T12:41:01.352Z,5.75
2018-06-03T12:43:29.559Z,4.15
2018-06-03T12:45:57.572Z,4.17
2018-06-03T12:48:25.792Z,4.67
2018-06-03T12:50:54.001Z,4.12
2018-06-03T12:53:22.614Z,4.58
2018-06-03T12:55:50.806Z,4.30
2018-06-03T12:58:19.374Z,3.77
2018-06-03T13:00:47.585Z,4.05
2018-06-03T13:03:16.654Z,4.55
2018-06-03T13:05:45.241Z,4.17
2018-06-03T13:08:13.725Z,4.10
2018-06-03T13:10:42.419Z,4.40
2018-06-03T13:13:17.830Z,4.87
2018-06-03T13:15:47.219Z,4.10
2018-06-03T13:18:16.403Z,4.45
2018-06-03T13:20:47.630Z,3.92
2018-06-03T13:23:16.896Z,3.90
2018-06-03T13:25:45.728Z,4.00
2018-06-03T13:28:14.973Z,4.53
2018-06-03T13:30:44.603Z,4.05
2018-06-03T13:33:13.806Z,4.78
2018-06-03T13:35:43.569Z,3.77
2018-06-03T13:38:12.491Z,3.98
2018-06-03T13:40:41.199Z,4.47
2018-06-03T13:43:11.790Z,4.47
2018-06-03T13:45:40.721Z,5.03
2018-06-03T13:48:09.455Z,4.10
2018-06-03T13:50:38.774Z,4.20
2018-06-03T13:53:08.042Z,4.35
2018-06-03T13:55:36.932Z,4.60
2018-06-03T13:58:05.956Z,4.28
2018-06-03T14:00:34.680Z,4.33
2018-06-03T14:03:04.422Z,4.30
2018-06-03T14:05:33.599Z,4.10
2018-06-03T14:08:03.564Z,4.53
2018-06-03T14:10:32.723Z,4.37
2018-06-03T14:13:01.956Z,4.53
2018-06-03T14:15:31.466Z,4.22
2018-06-03T14:18:01.209Z,4.20
2018-06-03T14:20:29.917Z,4.10
2018-06-03T14:22:59.641Z,4.15
2018-06-03T14:25:28.459Z,4.10
2018-06-03T14:27:57.541Z,4.42
2018-06-03T14:30:26.532Z,4.30
2018-06-03T14:32:55.887Z,4.50
2018-06-03T14:35:24.198Z,4.05
2018-06-03T14:37:54.030Z,3.98
2018-06-03T14:40:23.326Z,4.30
2018-06-03T14:42:52.880Z,4.15
2018-06-03T14:45:22.254Z,4.03
2018-06-03T14:47:51.244Z,4.20
2018-06-03T14:50:19.836Z,4.05
2018-06-03T14:52:48.682Z,4.08
2018-06-03T14:55:17.252Z,4.22
2018-06-03T14:57:46.399Z,3.72
2018-06-03T15:00:15.511Z,4.15
2018-06-03T15:02:44.753Z,4.83
2018-06-03T15:05:14.072Z,6.08
2018-06-03T15:07:43.484Z,4.67
2018-06-03T15:10:12.592Z,4.40
2018-06-03T15:12:41.899Z,4.20
2018-06-03T15:15:11.130Z,4.58
2018-06-03T15:17:40.139Z,4.58
2018-06-03T15:20:08.529Z,4.58
2018-06-03T15:22:37.215Z,4.35
2018-06-03T15:25:06.653Z,4.67
2018-06-03T15:27:34.590Z,4.22
2018-06-03T15:30:03.346Z,4.37
2018-06-03T15:32:32.729Z,4.22
2018-06-03T15:35:01.349Z,4.70
2018-06-03T15:37:30.490Z,4.80
2018-06-03T15:39:59.179Z,4.05
2018-06-03T15:42:28.528Z,4.50
2018-06-03T15:44:57.641Z,4.67
2018-06-03T15:47:27.547Z,4.70
2018-06-03T15:49:56.737Z,4.75
2018-06-03T15:52:24.918Z,6.17
2018-06-03T15:54:54.197Z,4.28
2018-06-03T15:57:22.840Z,4.33
2018-06-03T15:59:52.192Z,4.45
2018-06-03T16:02:21.246Z,4.65
2018-06-03T16:04:50.298Z,4.58
2018-06-03T16:07:19.303Z,4.50
2018-06-03T16:09:48.282Z,4.70
2018-06-03T16:12:17.441Z,4.58
2018-06-03T16:14:46.481Z,4.42
2018-06-03T16:17:17.235Z,4.37
2018-06-03T16:19:46.349Z,4.10
2018-06-03T16:22:15.938Z,4.85
2018-06-03T16:24:45.531Z,4.50
2018-06-03T16:27:14.807Z,4.83
2018-06-03T16:29:43.665Z,4.78
2018-06-03T16:32:13.345Z,4.87
2018-06-03T16:34:42.941Z,4.35
2018-06-03T16:37:13.055Z,4.62
2018-06-03T16:39:42.880Z,4.62
2018-06-03T16:42:12.564Z,4.53
2018-06-03T16:44:41.841Z,4.30
2018-06-03T16:47:10.384Z,4.53
2018-06-03T16:49:40.495Z,4.55
2018-06-03T16:52:09.716Z,4.60
2018-06-03T16:54:39.121Z,5.12
2018-06-03T16:57:07.978Z,4.45
2018-06-03T16:59:37.271Z,6.03
2018-06-03T17:02:06.569Z,4.10
2018-06-03T17:04:35.336Z,4.30
2018-06-03T17:07:05.043Z,4.47
2018-06-03T17:09:35.673Z,4.22
2018-06-03T17:12:04.586Z,4.80
2018-06-03T17:14:34.862Z,4.50
2018-06-03T17:17:04.388Z,4.55
2018-06-03T17:19:33.953Z,5.25
2018-06-03T17:22:03.451Z,4.58
2018-06-03T17:24:33.103Z,3.80
2018-06-03T17:27:02.215Z,4.78
2018-06-03T17:29:32.021Z,4.15
2018-06-03T17:32:01.711Z,6.70
2018-06-03T17:34:31.060Z,3.62
2018-06-03T17:36:59.654Z,4.10
2018-06-03T17:39:28.340Z,4.30
2018-06-03T17:41:57.363Z,3.75
2018-06-03T17:44:26.568Z,4.08
2018-06-03T17:46:56.449Z,3.90
2018-06-03T17:49:25.726Z,3.77
2018-06-03T17:51:54.425Z,4.78
2018-06-03T17:54:23.264Z,4.25
2018-06-03T17:56:52.104Z,4.08
2018-06-03T17:59:22.174Z,3.95
2018-06-03T18:01:51.010Z,4.15
2018-06-03T18:04:20.732Z,3.80
2018-06-03T18:06:49.535Z,4.00
2018-06-03T18:09:19.150Z,4.17
2018-06-03T18:11:49.068Z,4.62
2018-06-03T18:14:18.894Z,3.55
2018-06-03T18:16:48.019Z,4.00
2018-06-03T18:19:17.493Z,4.12
2018-06-03T18:21:46.995Z,4.40
2018-06-03T18:24:16.359Z,3.90
2018-06-03T18:26:45.886Z,4.53
2018-06-03T18:29:14.587Z,3.70
2018-06-03T18:49:00.507Z,3.60
2018-06-03T18:51:29.827Z,4.05
2018-06-03T18:53:59.290Z,4.28
2018-06-03T18:56:28.249Z,4.92
2018-06-03T18:58:57.540Z,6.28
2018-06-03T19:01:26.517Z,4.33
2018-06-03T19:06:45.500Z,5.30
2018-06-03T19:09:13.831Z,4.47
2018-06-03T19:11:43.080Z,3.85
2018-06-03T19:14:12.509Z,4.20
2018-06-03T19:16:42.663Z,4.10
2018-06-03T19:19:12.535Z,3.80
2018-06-03T19:21:42.026Z,3.92
2018-06-03T19:24:11.447Z,4.58
2018-06-03T19:26:41.821Z,3.80
2018-06-03T19:29:11.413Z,4.35
2018-06-03T19:31:41.929Z,4.25
2018-06-03T19:34:10.945Z,4.30
2018-06-03T19:36:40.261Z,3.95
2018-06-03T19:39:09.780Z,4.80
2018-06-03T19:41:39.057Z,4.20
2018-06-03T19:44:08.078Z,5.58
2018-06-03T19:46:38.549Z,4.45
2018-06-03T19:49:07.467Z,3.77
2018-06-03T19:51:36.833Z,4.00
2018-06-03T19:54:06.385Z,3.60
2018-06-03T19:56:35.603Z,4.12
2018-06-03T19:59:04.705Z,4.30
2018-06-03T20:01:34.390Z,3.92
2018-06-03T20:04:04.171Z,4.28
2018-06-03T20:06:33.545Z,4.55
2018-06-03T20:09:02.565Z,5.78
2018-06-03T20:11:32.071Z,4.37
2018-06-03T20:14:01.213Z,5.97
2018-06-03T20:16:30.082Z,4.17
2018-06-03T20:36:10.911Z,4.60
2018-06-03T20:38:39.716Z,4.53
2018-06-03T20:41:09.089Z,4.60
2018-06-03T20:43:38.213Z,4.42
2018-06-03T20:46:07.382Z,5.50
2018-06-03T20:48:36.006Z,4.28
2018-06-03T20:51:04.640Z,4.45
2018-06-03T20:53:33.320Z,3.87
2018-06-03T20:56:01.990Z,4.50
2018-06-03T20:58:30.625Z,4.67
2018-06-03T21:00:59.289Z,4.58
2018-06-03T21:03:27.731Z,4.58
2018-06-03T21:05:56.364Z,3.90
2018-06-03T21:08:25.061Z,5.67
2018-06-03T21:10:53.748Z,4.40
2018-06-03T21:13:22.382Z,4.60
2018-06-03T21:15:50.720Z,4.35
2018-06-03T21:18:19.057Z,4.85
2018-06-03T21:20:47.396Z,4.75
2018-06-03T21:23:15.686Z,3.77
2018-06-03T21:25:43.918Z,4.45
2018-06-03T21:28:12.179Z,4.53
2018-06-03T21:30:40.420Z,4.50
2018-06-03T21:33:08.716Z,3.85
2018-06-03T21:35:36.924Z,4.15
2018-06-03T21:38:05.156Z,3.80
2018-06-03T21:40:33.384Z,4.22
2018-06-03T21:43:01.639Z,4.25
2018-06-03T21:45:32.717Z,3.80
2018-06-03T21:48:01.024Z,4.22
2018-06-03T21:50:29.268Z,4.42
2018-06-03T21:52:57.544Z,4.40
2018-06-03T21:55:27.092Z,4.03
2018-06-03T21:57:55.345Z,4.30
2018-06-03T22:00:23.660Z,4.25
2018-06-03T22:02:51.947Z,4.20
2018-06-03T22:05:21.463Z,3.92
2018-06-03T22:07:49.727Z,4.00
2018-06-03T22:10:18.104Z,4.60
2018-06-03T22:12:46.462Z,4.17
2018-06-03T22:15:16.509Z,4.97
2018-06-03T22:17:44.755Z,4.47
2018-06-03T22:20:13.066Z,5.05
2018-06-03T22:22:41.294Z,4.40
2018-06-03T22:25:09.547Z,3.70
2018-06-03T22:27:37.801Z,5.10
2018-06-03T22:30:06.064Z,4.20
2018-06-03T22:32:34.271Z,4.90
2018-06-03T22:35:02.546Z,4.35
2018-06-03T22:37:30.773Z,3.92
2018-06-03T22:39:59.012Z,4.30
2018-06-03T22:42:27.274Z,4.37
2018-06-03T22:44:55.546Z,4.00
2018-06-03T22:47:23.770Z,5.30
2018-06-03T22:49:52.029Z,4.75
2018-06-03T22:52:20.269Z,4.72
2018-06-03T22:54:48.553Z,3.98
2018-06-03T22:58:20.061Z,4.47
2018-06-03T23:00:48.310Z,5.20
2018-06-03T23:03:16.916Z,5.72
2018-06-03T23:05:45.170Z,4.53
2018-06-03T23:08:13.396Z,4.58
2018-06-03T23:10:41.607Z,3.80
2018-06-03T23:13:09.826Z,4.40
2018-06-03T23:15:38.034Z,4.58
2018-06-03T23:18:06.384Z,5.72
2018-06-03T23:20:34.679Z,4.62
2018-06-03T23:23:02.954Z,4.37
2018-06-03T23:25:31.177Z,4.12
2018-06-03T23:27:59.355Z,4.95
2018-06-03T23:30:27.592Z,3.92
2018-06-03T23:32:55.804Z,7.05
2018-06-03T23:35:24.012Z,4.80
2018-06-03T23:37:52.212Z,5.17
2018-06-03T23:40:20.428Z,5.62
2018-06-03T23:42:48.588Z,5.08
2018-06-03T23:45:18.496Z,4.65
2018-06-03T23:47:46.675Z,6.28
2018-06-03T23:50:16.508Z,4.87
2018-06-03T23:52:44.730Z,5.87
2018-06-03T23:55:12.934Z,4.53
2018-06-03T23:57:40.896Z,4.33
